Time;durP1;ratioP1;P1;durP2;ratioP2;P2;SDS_P1;SDS_P2;PMS_P1;PMS_P2;Temp;Humidity;BMP_temperature;BMP_pressure;BME280_temperature;BME280_humidity;BME280_pressure;Samples;Min_cycle;Max_cycle;Signal;HPM_P1;HPM_P2
2022/07/11 03:55:44;;;;;;;2.10;1.15;;;;;;;14.20;65.18;100629.63;5912792;27;20194;-85
2022/07/11 03:58:47;;;;;;;2.72;0.93;;;;;;;14.45;64.23;100632.78;5348563;33;33961;-85
2022/07/11 04:01:49;;;;;;;1.20;1.20;;;;;;;14.42;64.16;100643.13;5362239;33;33421;-85
2022/07/11 04:04:52;;;;;;;2.45;1.17;;;;;;;14.49;63.87;100641.34;5362487;33;34944;-85
2022/07/11 04:07:55;;;;;;;0.90;0.90;;;;;;;14.58;63.68;100640.19;5363309;33;33642;-85
2022/07/11 04:10:58;;;;;;;1.27;1.10;;;;;;;14.71;63.37;100645.69;5362808;33;33823;-85
2022/07/11 04:14:00;;;;;;;2.05;1.10;;;;;;;14.93;63.28;100640.19;5367239;33;34545;-85
2022/07/11 04:17:03;;;;;;;1.92;1.08;;;;;;;15.15;62.01;100638.19;5373463;33;34417;-85
2022/07/11 04:20:07;;;;;;;1.85;1.00;;;;;;;15.36;61.41;100642.69;5359904;33;32835;-85
2022/07/11 04:23:10;;;;;;;2.95;1.12;;;;;;;15.46;60.90;100654.00;5371938;33;33818;-86
2022/07/11 04:26:12;;;;;;;2.65;0.98;;;;;;;15.72;59.81;100647.03;5365338;33;34235;-84
2022/07/11 04:29:15;;;;;;;0.80;0.80;;;;;;;15.92;59.24;100645.19;5350640;33;32903;-84
2022/07/11 04:35:39;;;;;;;3.17;1.23;;;;;;;16.12;58.37;100647.06;5361946;33;33575;-84
2022/07/11 04:38:44;;;;;;;1.60;0.90;;;;;;;16.16;57.86;100649.19;5361704;33;33535;-85
2022/07/11 04:41:47;;;;;;;1.87;1.20;;;;;;;16.21;57.63;100652.09;5361737;33;35526;-84
2022/07/11 04:44:49;;;;;;;1.80;1.37;;;;;;;16.15;57.82;100652.12;5360830;33;34229;-84
2022/07/11 04:47:52;;;;;;;1.85;0.82;;;;;;;16.24;57.49;100657.13;5361239;33;33519;-85
2022/07/11 04:50:55;;;;;;;2.45;1.12;;;;;;;16.36;57.30;100648.34;5347596;33;33496;-85
2022/07/11 04:53:58;;;;;;;1.55;1.30;;;;;;;16.36;57.14;100654.63;5360650;33;34161;-84
2022/07/11 04:57:00;;;;;;;2.47;1.30;;;;;;;16.54;56.66;100660.25;5365377;33;33999;-85
2022/07/11 05:00:04;;;;;;;1.10;1.00;;;;;;;16.80;56.08;100649.59;5365948;33;32191;-85
2022/07/11 05:03:08;;;;;;;1.27;1.02;;;;;;;16.94;55.02;100652.06;5380025;33;34452;-84
2022/07/11 05:06:11;;;;;;;1.35;1.23;;;;;;;17.13;54.86;100649.50;5383476;33;34045;-85
2022/07/11 05:09:13;;;;;;;1.15;0.93;;;;;;;17.21;54.36;100655.53;5386663;33;33669;-84
2022/07/11 05:12:16;;;;;;;1.62;1.00;;;;;;;17.08;54.50;100660.19;5383458;33;34495;-88
2022/07/11 05:15:19;;;;;;;1.48;1.08;;;;;;;17.21;54.15;100660.16;5389945;33;34287;-89
2022/07/11 05:18:22;;;;;;;2.15;1.10;;;;;;;17.18;54.04;100666.03;5387768;33;34330;-89
2022/07/11 05:21:25;;;;;;;1.45;0.98;;;;;;;17.09;54.46;100667.31;5388334;33;34210;-89
2022/07/11 05:24:28;;;;;;;1.25;0.90;;;;;;;16.96;54.77;100668.16;5388786;33;35323;-85
2022/07/11 05:27:30;;;;;;;1.55;1.00;;;;;;;17.03;55.03;100671.72;5380036;33;35821;-85
2022/07/11 05:30:33;;;;;;;1.77;1.23;;;;;;;17.25;54.30;100668.72;5382161;33;35196;-85
2022/07/11 05:33:36;;;;;;;1.95;1.40;;;;;;;17.35;53.93;100663.66;5386383;33;34364;-85
2022/07/11 05:36:39;;;;;;;1.60;1.30;;;;;;;17.47;53.77;100664.66;5383875;33;34933;-86
2022/07/11 05:39:42;;;;;;;1.33;1.20;;;;;;;17.52;53.01;100664.84;5378826;33;34360;-84
2022/07/11 05:42:45;;;;;;;2.35;1.00;;;;;;;17.59;53.22;100670.25;5378492;33;33942;-85
2022/07/11 05:45:49;;;;;;;1.95;1.10;;;;;;;17.76;52.97;100671.44;5378761;33;33848;-85
2022/07/11 05:48:52;;;;;;;1.83;1.25;;;;;;;17.97;52.01;100673.00;5378539;33;33984;-85
2022/07/11 05:51:58;;;;;;;4.10;1.15;;;;;;;18.12;51.98;100678.16;5378283;33;34450;-85
2022/07/11 05:55:04;;;;;;;1.25;0.90;;;;;;;18.07;51.61;100676.06;5377866;33;34045;-85
2022/07/11 05:58:07;;;;;;;1.37;1.10;;;;;;;18.01;51.53;100670.69;5377593;33;33717;-85
2022/07/11 06:01:10;;;;;;;3.75;0.93;;;;;;;18.19;51.32;100675.38;5378212;33;35231;-85
2022/07/11 06:04:13;;;;;;;1.00;0.95;;;;;;;18.11;50.97;100687.38;5378263;33;33694;-85
2022/07/11 06:08:40;;;;;;;1.80;1.10;;;;;;;18.09;51.03;100681.31;5377772;33;33547;-85
2022/07/11 06:10:39;;;;;;;1.90;1.02;;;;;;;18.13;50.76;100680.66;5378011;33;33811;-83
2022/07/11 06:13:44;;;;;;;1.37;1.20;;;;;;;18.14;51.03;100678.78;5378136;33;33551;-84
2022/07/11 06:16:49;;;;;;;2.12;1.50;;;;;;;18.09;51.07;100681.31;5377550;33;34002;-84
2022/07/11 06:19:52;;;;;;;2.47;1.23;;;;;;;18.15;51.18;100687.78;5377203;33;34092;-84
2022/07/11 06:22:55;;;;;;;2.12;1.08;;;;;;;18.31;51.07;100690.81;5377295;33;33898;-84
2022/07/11 06:25:58;;;;;;;2.00;0.95;;;;;;;18.43;50.42;100685.47;5375729;33;34515;-84
2022/07/11 06:29:01;;;;;;;2.03;0.90;;;;;;;18.38;50.41;100689.91;5376832;33;34532;-84
2022/07/11 06:32:04;;;;;;;1.10;1.00;;;;;;;18.58;49.63;100685.13;5377560;33;34271;-84
2022/07/11 06:35:08;;;;;;;3.05;1.48;;;;;;;18.67;49.41;100682.97;5377583;33;33904;-84
2022/07/11 06:38:11;;;;;;;1.40;1.10;;;;;;;18.98;48.57;100682.91;5376590;33;33813;-83
2022/07/11 06:41:14;;;;;;;2.97;1.02;;;;;;;18.91;48.51;100684.03;5376966;33;33777;-84
2022/07/11 06:44:17;;;;;;;1.87;1.10;;;;;;;19.15;48.15;100680.38;5364337;33;32451;-84
2022/07/11 06:47:20;;;;;;;2.22;0.90;;;;;;;19.48;47.42;100679.19;5375907;33;34385;-84
2022/07/11 06:50:23;;;;;;;1.58;1.48;;;;;;;19.53;47.39;100684.78;5361518;33;32113;-84
2022/07/11 06:53:26;;;;;;;1.45;1.20;;;;;;;19.66;46.84;100686.56;5379233;33;33810;-84
2022/07/11 06:56:28;;;;;;;2.90;0.93;;;;;;;19.49;47.44;100694.50;5379008;33;33643;-84
2022/07/11 06:59:31;;;;;;;3.47;1.70;;;;;;;19.51;47.73;100696.97;5379411;33;33804;-84
2022/07/11 07:02:34;;;;;;;4.10;1.70;;;;;;;19.41;47.65;100698.37;5379480;33;34172;-84
2022/07/11 07:05:37;;;;;;;2.55;1.17;;;;;;;19.48;47.60;100695.56;5367380;33;34291;-84
2022/07/11 07:08:40;;;;;;;1.70;1.33;;;;;;;19.57;47.30;100696.06;5369545;33;34006;-84
2022/07/11 07:11:43;;;;;;;0.95;0.95;;;;;;;20.05;46.29;100692.53;5370311;33;34842;-83
2022/07/11 07:14:46;;;;;;;1.95;1.10;;;;;;;20.56;45.07;100694.69;5379498;33;34208;-83
2022/07/11 07:17:49;;;;;;;2.00;1.00;;;;;;;20.98;44.21;100702.78;5377182;33;33692;-87
2022/07/11 07:20:52;;;;;;;0.80;0.80;;;;;;;21.47;43.01;100689.66;5377274;33;33915;-88
2022/07/11 07:23:55;;;;;;;1.30;1.00;;;;;;;21.73;42.17;100695.63;5379050;33;33851;-88
2022/07/11 07:26:58;;;;;;;1.55;1.08;;;;;;;21.59;41.74;100699.75;5378692;33;34437;-88
2022/07/11 07:30:02;;;;;;;2.28;1.15;;;;;;;21.41;42.55;100696.09;5377062;33;33884;-85
2022/07/11 07:33:05;;;;;;;2.05;0.88;;;;;;;21.60;42.08;100695.94;5379193;33;34018;-84
2022/07/11 07:36:07;;;;;;;2.83;1.40;;;;;;;21.69;41.62;100695.28;5378917;33;34444;-84
2022/07/11 07:39:11;;;;;;;3.35;1.20;;;;;;;21.56;41.91;100690.09;5378290;33;34375;-84
2022/07/11 07:42:13;;;;;;;1.75;0.80;;;;;;;21.53;41.67;100693.34;5378501;33;34484;-84
2022/07/11 07:45:16;;;;;;;1.65;1.00;;;;;;;21.20;41.81;100696.69;5378910;33;34262;-84
2022/07/11 07:48:19;;;;;;;0.82;0.82;;;;;;;20.85;42.64;100708.50;5358323;33;33171;-84
2022/07/11 07:51:22;;;;;;;0.70;0.70;;;;;;;20.60;43.33;100708.72;5375743;33;33860;-84
2022/07/11 07:54:25;;;;;;;1.33;1.10;;;;;;;20.59;43.78;100710.63;5371839;33;34023;-84
2022/07/11 07:57:27;;;;;;;2.42;1.00;;;;;;;20.29;43.93;100704.34;5380377;33;33789;-83
2022/07/11 08:03:53;;;;;;;0.93;0.85;;;;;;;19.95;45.16;100704.03;5372875;33;34492;-84
2022/07/11 08:06:56;;;;;;;2.50;1.20;;;;;;;19.87;45.49;100707.91;5370479;33;33874;-84
2022/07/11 08:09:59;;;;;;;3.62;1.02;;;;;;;19.72;46.03;100701.19;5353516;33;32369;-83
2022/07/11 08:13:03;;;;;;;2.90;1.02;;;;;;;19.96;45.59;100702.13;5363689;33;34415;-84
2022/07/11 08:16:06;;;;;;;2.60;1.15;;;;;;;19.97;45.47;100699.13;5374370;33;33938;-84
2022/07/11 08:19:11;;;;;;;2.28;1.33;;;;;;;20.14;44.66;100700.16;5366403;33;32822;-83
2022/07/11 08:22:14;;;;;;;4.37;0.90;;;;;;;20.42;44.11;100687.75;5379416;33;33775;-84
2022/07/11 08:25:17;;;;;;;1.92;1.10;;;;;;;20.41;44.32;100688.78;5378790;33;34554;-83
2022/07/11 08:28:20;;;;;;;1.83;0.90;;;;;;;20.33;44.57;100691.91;5370467;33;33799;-83
2022/07/11 08:31:24;;;;;;;1.50;0.93;;;;;;;20.61;44.02;100693.97;5377727;33;35686;-84
2022/07/11 08:34:27;;;;;;;1.10;0.98;;;;;;;20.97;42.02;100681.97;5378753;33;34637;-84
2022/07/11 08:37:30;;;;;;;1.83;0.85;;;;;;;21.19;41.06;100675.88;5374264;33;33750;-84
2022/07/11 08:40:33;;;;;;;2.90;1.05;;;;;;;21.65;39.64;100666.72;5364193;33;33100;-83
2022/07/11 08:43:35;;;;;;;1.12;0.82;;;;;;;21.98;39.92;100667.06;5378747;33;33954;-82
2022/07/11 08:46:43;;;;;;;1.23;0.80;;;;;;;22.43;38.14;100672.53;5364562;33;32430;-82
2022/07/11 08:49:45;;;;;;;2.83;1.00;;;;;;;22.17;38.74;100668.50;5375991;33;33717;-82
2022/07/11 08:52:49;;;;;;;0.62;0.62;;;;;;;22.45;37.61;100666.81;5378461;33;33799;-82
2022/07/11 08:55:52;;;;;;;1.50;0.80;;;;;;;22.31;36.58;100658.06;5377147;33;33844;-82
2022/07/11 08:58:55;;;;;;;2.72;0.90;;;;;;;22.23;36.48;100662.06;5377507;33;33771;-82
2022/07/11 09:02:02;;;;;;;3.30;1.05;;;;;;;22.32;36.63;100657.00;5364314;33;35767;-82
2022/07/11 09:05:06;;;;;;;1.25;0.85;;;;;;;22.90;35.79;100644.69;5378473;33;33677;-82
2022/07/11 09:08:08;;;;;;;1.35;0.93;;;;;;;22.55;36.38;100655.97;5377218;33;34336;-82
2022/07/11 09:11:11;;;;;;;1.00;0.80;;;;;;;22.92;35.51;100656.25;5378145;33;34825;-83
2022/07/11 09:14:28;;;;;;;2.25;0.98;;;;;;;23.18;34.22;100651.16;5378086;33;34579;-83
2022/07/11 09:17:32;;;;;;;1.70;0.90;;;;;;;23.58;34.61;100648.06;5378175;33;34334;-83
2022/07/11 09:27:49;;;;;;;2.92;1.10;;;;;;;23.54;33.56;100639.50;5377365;33;33729;-83
2022/07/11 09:30:52;;;;;;;0.52;0.50;;;;;;;24.12;32.61;100637.09;5375428;33;33846;-82
2022/07/11 09:34:11;;;;;;;1.95;0.93;;;;;;;24.15;31.95;100639.31;5377495;33;33876;-82
2022/07/11 09:37:13;;;;;;;0.52;0.52;;;;;;;24.17;30.64;100623.37;5377534;33;33764;-82
2022/07/11 09:40:17;;;;;;;1.70;0.60;;;;;;;24.10;30.82;100621.94;5377403;33;34122;-83
2022/07/11 09:43:25;;;;;;;0.60;0.60;;;;;;;24.11;30.13;100618.12;5369953;33;34026;-83
2022/07/11 09:46:27;;;;;;;1.25;1.10;;;;;;;24.36;29.93;100611.97;5376737;33;34362;-82
2022/07/11 09:49:39;;;;;;;1.15;0.70;;;;;;;24.20;29.81;100620.09;5376147;33;34487;-83
2022/07/11 09:52:44;;;;;;;2.42;0.65;;;;;;;24.61;30.15;100614.13;5375414;33;33885;-83
2022/07/11 09:55:52;;;;;;;1.02;0.60;;;;;;;24.42;29.49;100621.91;5374578;33;33844;-83
2022/07/11 09:58:59;;;;;;;2.50;0.70;;;;;;;24.51;30.02;100611.28;5356197;33;35395;-83
2022/07/11 10:02:03;;;;;;;4.57;0.82;;;;;;;24.42;30.17;100611.78;5370452;33;33862;-83
2022/07/11 10:05:06;;;;;;;2.65;0.82;;;;;;;24.77;29.77;100613.09;5373012;33;35226;-84
2022/07/11 10:08:09;;;;;;;2.35;1.00;;;;;;;24.77;29.60;100615.84;5373949;33;34479;-85
2022/07/11 10:11:12;;;;;;;1.70;1.00;;;;;;;24.84;28.46;100610.13;5373843;33;34226;-91
2022/07/11 10:14:15;;;;;;;1.85;0.70;;;;;;;24.87;28.56;100596.66;5374394;33;34023;-88
2022/07/11 10:17:38;;;;;;;1.95;0.88;;;;;;;24.96;28.34;100599.72;5353879;33;33271;-89
2022/07/11 10:20:53;;;;;;;1.42;0.85;;;;;;;25.22;28.69;100595.19;5360468;33;33549;-85
2022/07/11 10:24:12;;;;;;;1.85;1.10;;;;;;;25.51;27.92;100587.28;5379399;33;33546;-85
2022/07/11 10:27:48;;;;;;;0.60;0.60;;;;;;;25.54;26.87;100597.75;5373262;33;34502;-85
2022/07/11 10:30:55;;;;;;;1.48;0.60;;;;;;;25.89;25.87;100601.72;5361834;33;31207;-84
2022/07/11 10:34:00;;;;;;;0.60;0.60;;;;;;;25.91;25.41;100585.69;5376242;33;34333;-86
2022/07/11 10:37:04;;;;;;;2.90;0.93;;;;;;;25.63;26.60;100588.94;5376765;33;34033;-85
2022/07/11 10:40:08;;;;;;;2.20;0.68;;;;;;;25.01;27.46;100597.00;5362488;33;32361;-85
2022/07/11 10:43:11;;;;;;;0.80;0.80;;;;;;;24.57;28.15;100601.97;5375391;33;33913;-85
2022/07/11 10:46:19;;;;;;;2.40;1.02;;;;;;;24.96;27.84;100583.19;5375332;33;34581;-85
2022/07/11 10:49:43;;;;;;;;;;;;;;;26.05;26.53;100593.44;5369780;33;33069;-84
2022/07/11 10:52:48;;;;;;;1.30;0.65;;;;;;;26.44;25.45;100586.25;5369136;33;34840;-85
2022/07/11 10:56:12;;;;;;;2.00;0.62;;;;;;;27.02;25.16;100576.69;5361044;33;32525;-84
2022/07/11 11:00:03;;;;;;;2.40;0.77;;;;;;;26.33;25.76;100586.53;5373860;33;33806;-85
2022/07/11 11:03:09;;;;;;;1.65;0.70;;;;;;;27.09;25.48;100580.00;5361714;33;34065;-84
2022/07/11 11:06:12;;;;;;;2.15;0.75;;;;;;;26.58;25.01;100578.22;5377192;33;34392;-84
2022/07/11 11:09:37;;;;;;;3.55;0.80;;;;;;;26.99;24.51;100563.44;5379983;33;33661;-84
2022/07/11 11:13:11;;;;;;;2.97;0.70;;;;;;;26.64;24.74;100577.09;5388919;33;34019;-84
2022/07/11 11:16:25;;;;;;;3.70;0.73;;;;;;;27.34;23.96;100571.59;5366138;33;32751;-84
2022/07/11 11:19:46;;;;;;;1.20;0.60;;;;;;;27.89;22.84;100573.47;5377408;33;34565;-84
2022/07/11 11:23:09;;;;;;;1.73;0.80;;;;;;;27.74;22.99;100566.91;5377626;33;34198;-84
2022/07/11 11:26:20;;;;;;;2.20;1.00;;;;;;;27.52;23.95;100564.56;5380811;33;33257;-85
2022/07/11 11:29:25;;;;;;;1.25;0.70;;;;;;;26.55;25.04;100569.66;5374419;33;34881;-84
2022/07/11 11:32:30;;;;;;;1.75;0.62;;;;;;;26.91;24.35;100567.59;5375845;33;35281;-84
2022/07/11 11:35:33;;;;;;;1.05;0.70;;;;;;;28.68;22.12;100569.41;5378493;33;33720;-85
2022/07/11 11:38:38;;;;;;;2.30;0.73;;;;;;;30.19;20.03;100562.34;5375932;33;34149;-85
2022/07/11 11:41:41;;;;;;;0.90;0.65;;;;;;;29.33;21.65;100562.53;5363716;33;32323;-87
2022/07/11 11:45:02;;;;;;;1.45;0.43;;;;;;;28.19;23.38;100564.06;5371417;33;34624;-86
2022/07/11 11:48:05;;;;;;;1.92;0.62;;;;;;;29.03;22.67;100572.09;5377924;33;34036;-85
2022/07/11 11:51:12;;;;;;;1.40;0.70;;;;;;;28.71;22.82;100579.91;5379517;33;33975;-84
2022/07/11 11:54:23;;;;;;;1.20;0.70;;;;;;;28.00;23.75;100580.59;5378265;33;34341;-84
2022/07/11 11:57:28;;;;;;;2.03;1.10;;;;;;;29.71;22.48;100570.88;5366631;33;33715;-84
2022/07/11 12:00:31;;;;;;;4.82;0.70;;;;;;;31.74;20.05;100570.03;5376980;33;34201;-85
2022/07/11 12:03:57;;;;;;;1.55;0.60;;;;;;;32.74;19.40;100575.25;5369160;33;33983;-84
2022/07/11 12:07:01;;;;;;;2.55;0.77;;;;;;;32.10;18.95;100575.56;5364315;33;33605;-85
2022/07/11 12:10:05;;;;;;;1.02;0.70;;;;;;;29.70;20.71;100574.81;5362308;33;32413;-84
2022/07/11 12:13:07;;;;;;;1.37;0.95;;;;;;;29.20;21.40;100577.16;5373445;33;33984;-84
2022/07/11 12:19:36;;;;;;;1.50;0.55;;;;;;;31.36;19.26;100562.84;5365731;33;34448;-84
2022/07/11 12:22:43;;;;;;;2.50;0.70;;;;;;;31.32;19.29;100570.09;5370222;33;34045;-85
2022/07/11 12:25:48;;;;;;;1.08;0.60;;;;;;;32.39;18.18;100571.47;5375566;33;34778;-88
2022/07/11 12:29:10;;;;;;;3.58;0.70;;;;;;;33.44;17.04;100562.31;5359062;33;33253;-89
2022/07/11 12:32:13;;;;;;;1.30;0.50;;;;;;;34.57;15.93;100553.81;5375657;33;34056;-85
2022/07/11 12:35:16;;;;;;;1.95;0.85;;;;;;;35.15;15.56;100562.59;5374370;33;34451;-86
2022/07/11 12:38:22;;;;;;;1.35;0.43;;;;;;;35.32;15.46;100559.66;5378559;33;34522;-86
2022/07/11 12:41:25;;;;;;;3.17;0.60;;;;;;;36.54;15.06;100561.38;5378298;33;34109;-85
2022/07/11 12:47:53;;;;;;;2.97;0.70;;;;;;;35.31;15.48;100569.25;5382304;33;34231;-87
2022/07/11 12:50:56;;;;;;;3.53;0.70;;;;;;;33.48;16.66;100571.66;5388880;33;33514;-87
2022/07/11 12:54:01;;;;;;;1.00;0.60;;;;;;;32.90;16.95;100559.72;5384319;33;34863;-87
2022/07/11 12:57:04;;;;;;;0.85;0.57;;;;;;;33.10;17.12;100555.53;5376451;33;34007;-87
2022/07/11 13:00:16;;;;;;;2.08;0.85;;;;;;;35.38;15.26;100558.31;5379349;33;34961;-87
2022/07/11 13:03:30;;;;;;;1.37;0.65;;;;;;;34.98;15.71;100544.72;5377952;33;33705;-86
2022/07/11 13:10:04;;;;;;;1.23;0.60;;;;;;;37.19;14.37;100534.22;5378488;33;33823;-83
2022/07/11 13:13:06;;;;;;;1.73;0.50;;;;;;;36.93;14.30;100537.38;5377892;33;33893;-83
2022/07/11 13:16:10;;;;;;;1.62;0.73;;;;;;;37.55;14.00;100538.13;5379890;33;33821;-83
2022/07/11 13:19:13;;;;;;;0.60;0.50;;;;;;;35.19;15.49;100539.19;5376222;33;33641;-83
2022/07/11 13:22:17;;;;;;;3.60;0.60;;;;;;;33.33;17.06;100533.91;5380343;33;34734;-83
2022/07/11 13:25:22;;;;;;;1.75;0.65;;;;;;;30.90;19.82;100552.66;5381571;33;33699;-83
2022/07/11 13:28:24;;;;;;;0.88;0.60;;;;;;;29.29;21.71;100539.31;5383434;33;35253;-83
2022/07/11 13:31:27;;;;;;;1.58;0.80;;;;;;;27.40;24.11;100552.22;5384017;33;35137;-86
2022/07/11 13:34:30;;;;;;;3.00;1.45;;;;;;;26.69;25.06;100563.28;5368701;33;32422;-83
2022/07/11 13:37:35;;;;;;;4.20;0.90;;;;;;;26.45;25.36;100557.50;5380618;33;33974;-83
2022/07/11 13:40:38;;;;;;;2.25;0.88;;;;;;;29.05;21.95;100559.59;5378010;33;34793;-85
2022/07/11 13:43:41;;;;;;;0.95;0.60;;;;;;;30.24;20.17;100549.19;5371335;33;32289;-83
2022/07/11 13:46:43;;;;;;;0.70;0.52;;;;;;;30.81;19.12;100537.84;5384494;33;34023;-83
2022/07/11 13:49:46;;;;;;;2.55;0.60;;;;;;;33.47;16.93;100528.16;5382151;33;34617;-83
2022/07/11 13:52:49;;;;;;;3.22;0.70;;;;;;;34.30;16.27;100533.50;5378252;33;34750;-83
2022/07/11 13:55:53;;;;;;;1.08;0.90;;;;;;;34.18;16.40;100540.94;5382003;33;34809;-83
2022/07/11 13:58:56;;;;;;;3.25;0.93;;;;;;;31.35;19.27;100540.88;5383742;33;34402;-83
2022/07/11 14:01:59;;;;;;;1.10;0.70;;;;;;;29.15;21.99;100551.12;5382607;33;34685;-83
2022/07/11 14:05:03;;;;;;;4.40;1.23;;;;;;;27.59;23.92;100550.44;5380691;33;34551;-83
2022/07/11 14:08:05;;;;;;;2.78;0.70;;;;;;;26.38;25.55;100553.38;5385311;33;34638;-83
2022/07/11 14:11:08;;;;;;;2.40;0.85;;;;;;;25.58;26.72;100548.41;5369358;33;32359;-83
2022/07/11 14:14:11;;;;;;;3.62;0.95;;;;;;;25.26;27.55;100554.12;5371725;33;33331;-82
2022/07/11 14:17:14;;;;;;;0.70;0.70;;;;;;;24.91;28.52;100558.38;5379867;33;33797;-83
2022/07/11 14:20:17;;;;;;;4.70;1.12;;;;;;;24.69;29.20;100561.31;5380008;33;34368;-83
2022/07/11 14:23:21;;;;;;;3.95;1.05;;;;;;;24.52;29.91;100564.22;5379996;33;34039;-83
2022/07/11 14:26:23;;;;;;;2.12;0.90;;;;;;;24.63;29.97;100562.37;5379219;33;34254;-83
2022/07/11 14:29:26;;;;;;;2.28;0.88;;;;;;;24.60;29.97;100566.50;5379635;33;33822;-83
2022/07/11 14:32:29;;;;;;;1.62;1.08;;;;;;;24.65;30.06;100563.75;5379570;33;34741;-83
2022/07/11 14:35:32;;;;;;;0.75;0.73;;;;;;;24.39;30.45;100575.66;5379665;33;34512;-83
2022/07/11 14:38:34;;;;;;;3.17;1.10;;;;;;;24.43;30.60;100569.41;5378633;33;34189;-83
2022/07/11 14:41:38;;;;;;;1.95;1.15;;;;;;;24.66;30.12;100572.84;5379553;33;34393;-83
2022/07/11 14:44:40;;;;;;;2.40;1.12;;;;;;;24.85;29.81;100562.19;5379177;33;34747;-83
2022/07/11 14:47:43;;;;;;;1.48;1.05;;;;;;;24.75;30.06;100564.91;5379711;33;33983;-83
2022/07/11 14:50:46;;;;;;;1.85;1.17;;;;;;;24.86;30.09;100556.44;5379631;33;34072;-83
2022/07/11 14:53:50;;;;;;;2.90;1.25;;;;;;;24.89;30.12;100555.91;5381846;33;34643;-83
2022/07/11 14:56:52;;;;;;;2.35;1.10;;;;;;;24.62;29.85;100545.00;5381443;33;34120;-83
2022/07/11 14:59:55;;;;;;;1.70;0.85;;;;;;;24.55;30.19;100549.94;5379279;33;34128;-83
2022/07/11 15:13:06;;;;;;;3.33;1.20;;;;;;;23.73;32.05;100565.78;5365795;33;35074;-87
2022/07/11 15:16:09;;;;;;;2.72;1.20;;;;;;;24.05;31.90;100566.91;5379319;33;33616;-87
2022/07/11 15:19:12;;;;;;;1.50;1.10;;;;;;;24.03;31.88;100566.31;5379099;33;33991;-88
2022/07/11 15:22:15;;;;;;;2.70;1.40;;;;;;;24.25;31.54;100564.31;5365276;33;33966;-87
2022/07/11 15:25:19;;;;;;;3.83;0.98;;;;;;;24.27;31.15;100561.28;5379306;33;33626;-84
2022/07/11 15:28:21;;;;;;;1.65;1.08;;;;;;;24.06;31.07;100574.88;5379484;33;33961;-83
2022/07/11 15:31:32;;;;;;;2.87;1.02;;;;;;;23.82;31.57;100568.06;5379410;33;34161;-85
2022/07/11 15:34:35;;;;;;;6.53;1.12;;;;;;;23.81;31.51;100558.16;5379211;33;34684;-85
2022/07/11 15:37:38;;;;;;;3.67;1.35;;;;;;;23.62;31.95;100561.25;5360727;33;32557;-85
2022/07/11 15:40:40;;;;;;;1.67;1.02;;;;;;;23.60;32.00;100563.41;5378285;33;34586;-85
2022/07/11 15:43:44;;;;;;;2.08;0.98;;;;;;;23.30;32.33;100563.94;5378479;33;34314;-83
2022/07/11 15:46:47;;;;;;;0.95;0.88;;;;;;;23.12;31.98;100565.13;5378972;33;33872;-83
2022/07/11 15:49:50;;;;;;;1.40;1.20;;;;;;;23.00;32.44;100562.50;5385194;33;34060;-86
2022/07/11 15:52:53;;;;;;;1.00;1.00;;;;;;;22.90;32.58;100567.00;5385014;33;35258;-86
2022/07/11 15:55:56;;;;;;;2.85;1.00;;;;;;;22.81;32.83;100558.38;5385433;33;34498;-86
